Airport View

Enter AWOS ICAO identifier for current METAR.

ex. KFNL

KSLR 251155Z AUTO 00000KT 10SM BKN025 14/14 A3002 RMK AO2 T01430143 10175 20143

25 Sep 2020 12:22

Frequency: 118.35

Phone: 903-885-9605

Other Area AWOS: KGVT - KJDD - KPRX - KOSA

TAF KTYR 251140Z 2512/2612 00000KT 6SM BR BKN020 TEMPO 2512/2514 4SM BR BKN015 FM251400 VRB03KT 6SM BR BKN015 FM251600 17005KT P6SM BKN025 FM251800 16005KT P6SM SCT035 FM252100 17005KT P6SM SCT250 FM260600 VRB03KT P6SM SCT025